Terminal Aerodrome Forecast
Issued by NWS

Home | Current Version | Previous Version | Graphics & Text | Print | Product List | Glossary On
Versions: 1 2 3 4 5 6 7 8 9 10 11 12 13 14 15 16 17 18 19 20 21 22 23
000
FTUS43 KTOP 181400 AAA
TAFFOE
TAF AMD
KFOE 181426Z 1814/1912 08006KT 3SM -SN BR SCT008 OVC011
      TEMPO 1814/1816 1 1/2SM -SN BR OVC008
     FM181600 08004KT 4SM BR OVC008
     FM182000 06003KT 6SM BR OVC012=

USA.gov is the U.S. government's official web portal to all federal, state and local government web resources and services.